Time;durP1;ratioP1;P1;durP2;ratioP2;P2;SDS_P1;SDS_P2;PMS_P1;PMS_P2;Temp;Humidity;BMP_temperature;BMP_pressure;BME280_temperature;BME280_humidity;BME280_pressure;Samples;Min_cycle;Max_cycle;Signal;HPM_P1;HPM_P2
2023/05/19 00:01:47;;;;;;;9.43;2.53;;;9.50;99.90;;;;;;4973241;28;20031;-64
2023/05/19 00:04:14;;;;;;;9.30;1.88;;;9.50;99.90;;;;;;4975398;28;20018;-64
2023/05/19 00:06:40;;;;;;;7.05;1.80;;;9.50;99.90;;;;;;4975509;28;20042;-63
2023/05/19 00:09:08;;;;;;;12.38;2.22;;;9.50;99.90;;;;;;4979100;28;20053;-64
2023/05/19 00:11:35;;;;;;;6.05;1.95;;;9.50;99.90;;;;;;4980601;28;20397;-64
2023/05/19 00:14:03;;;;;;;6.18;1.50;;;9.50;99.90;;;;;;4962059;28;20370;-64
2023/05/19 00:16:29;;;;;;;5.00;1.55;;;9.40;99.90;;;;;;4972590;28;20061;-64
2023/05/19 00:19:00;;;;;;;5.47;1.63;;;9.50;99.90;;;;;;4951771;28;20370;-63
2023/05/19 00:21:26;;;;;;;10.52;1.90;;;9.40;99.90;;;;;;4971973;28;20030;-64
2023/05/19 00:23:52;;;;;;;5.20;1.58;;;9.40;99.90;;;;;;4966790;28;20034;-64
2023/05/19 00:26:18;;;;;;;9.88;1.55;;;9.30;99.90;;;;;;4968268;28;20031;-63
2023/05/19 00:28:43;;;;;;;7.45;2.17;;;9.30;99.90;;;;;;4969334;28;20035;-63
2023/05/19 00:31:09;;;;;;;5.88;1.33;;;9.30;99.90;;;;;;4969400;28;20035;-63
2023/05/19 00:33:34;;;;;;;3.72;1.20;;;9.30;99.90;;;;;;4969162;28;20030;-64
2023/05/19 00:36:04;;;;;;;4.55;1.63;;;9.30;99.90;;;;;;4966475;28;20031;-64
2023/05/19 00:38:31;;;;;;;8.43;1.50;;;9.30;99.90;;;;;;4968332;28;20377;-64
2023/05/19 00:40:57;;;;;;;3.25;1.70;;;9.30;99.90;;;;;;4969692;28;20034;-64
2023/05/19 00:43:23;;;;;;;6.00;1.70;;;9.30;99.90;;;;;;4972260;28;20019;-63
2023/05/19 00:45:49;;;;;;;3.92;1.42;;;9.20;99.90;;;;;;4966953;28;20034;-63
2023/05/19 00:48:15;;;;;;;6.78;2.17;;;9.10;99.90;;;;;;4970346;28;20046;-64
2023/05/19 00:50:41;;;;;;;10.00;1.75;;;9.10;99.90;;;;;;4964973;28;20077;-63
2023/05/19 00:53:07;;;;;;;6.70;1.85;;;9.00;99.90;;;;;;4967758;28;20027;-63
2023/05/19 00:55:35;;;;;;;5.93;1.60;;;8.90;99.90;;;;;;4965358;28;20503;-62
2023/05/19 00:58:03;;;;;;;6.43;2.13;;;8.80;99.90;;;;;;4970881;28;20027;-63
2023/05/19 01:00:29;;;;;;;4.03;2.53;;;8.80;99.90;;;;;;4958574;28;20083;-64
2023/05/19 01:02:55;;;;;;;4.70;1.40;;;8.80;99.90;;;;;;4975562;28;20030;-63
2023/05/19 01:05:21;;;;;;;3.42;1.75;;;8.70;99.90;;;;;;4971649;28;20015;-63
2023/05/19 01:07:52;;;;;;;4.40;2.00;;;8.70;99.90;;;;;;4970952;28;20027;-63
2023/05/19 01:10:19;;;;;;;6.68;2.00;;;8.70;99.90;;;;;;4975274;28;20480;-63
2023/05/19 01:12:46;;;;;;;7.78;1.83;;;8.70;99.90;;;;;;4977726;28;20038;-64
2023/05/19 01:15:12;;;;;;;3.22;1.98;;;8.60;99.90;;;;;;4974871;28;20496;-63
2023/05/19 01:17:53;;;;;;;5.35;1.80;;;8.50;99.90;;;;;;4974668;28;20023;-63
2023/05/19 01:20:51;;;;;;;14.57;3.58;;;8.40;99.90;;;;;;4966453;28;20046;-64
2023/05/19 01:23:38;;;;;;;7.93;2.08;;;8.40;99.90;;;;;;4969242;28;20034;-64
2023/05/19 01:26:38;;;;;;;6.15;1.58;;;8.30;99.90;;;;;;4970621;28;20094;-63
2023/05/19 01:29:28;;;;;;;7.35;1.80;;;8.10;99.90;;;;;;4972206;28;20046;-63
2023/05/19 01:31:57;;;;;;;6.30;1.80;;;8.10;99.90;;;;;;4962999;28;20030;-63
2023/05/19 01:34:25;;;;;;;9.98;2.05;;;8.10;99.90;;;;;;4969078;28;20589;-64
2023/05/19 01:36:53;;;;;;;9.20;2.13;;;8.10;99.90;;;;;;4964970;28;20106;-63
2023/05/19 01:39:19;;;;;;;4.80;2.22;;;8.00;99.90;;;;;;4964428;28;20027;-63
2023/05/19 01:41:45;;;;;;;5.10;1.98;;;7.90;99.90;;;;;;4963780;28;20082;-63
2023/05/19 01:44:11;;;;;;;5.93;1.75;;;7.90;99.90;;;;;;4965279;28;20110;-63
2023/05/19 01:46:37;;;;;;;7.15;1.80;;;7.90;99.90;;;;;;4965439;28;20542;-63
2023/05/19 01:49:05;;;;;;;7.78;2.45;;;7.80;99.90;;;;;;4965389;28;20515;-62
2023/05/19 01:51:30;;;;;;;5.78;1.55;;;7.80;99.90;;;;;;4966029;28;20054;-64
2023/05/19 01:53:56;;;;;;;7.07;2.28;;;7.80;99.90;;;;;;4965792;28;20058;-64
2023/05/19 01:56:36;;;;;;;4.60;1.70;;;7.70;99.90;;;;;;4966609;28;20075;-63
2023/05/19 01:59:20;;;;;;;4.97;1.65;;;7.70;99.90;;;;;;4953233;28;20542;-64
2023/05/19 02:01:52;;;;;;;5.68;2.08;;;7.70;99.90;;;;;;4973589;28;20031;-64
2023/05/19 02:04:45;;;;;;;4.10;1.60;;;7.70;99.90;;;;;;4972703;28;20043;-64
2023/05/19 02:07:24;;;;;;;3.97;1.73;;;7.60;99.90;;;;;;4970910;28;20035;-64
2023/05/19 02:10:01;;;;;;;11.70;1.65;;;7.60;99.90;;;;;;4972749;28;20027;-63
2023/05/19 02:12:36;;;;;;;7.68;2.30;;;7.70;99.90;;;;;;4965370;28;20089;-64
2023/05/19 02:15:27;;;;;;;7.38;1.90;;;7.60;99.90;;;;;;4960190;28;20030;-64
2023/05/19 02:17:56;;;;;;;6.50;2.10;;;7.50;99.90;;;;;;4956556;28;20035;-63
2023/05/19 02:20:22;;;;;;;8.48;2.63;;;7.50;99.90;;;;;;4959737;28;20035;-62
2023/05/19 02:22:48;;;;;;;4.72;2.20;;;7.50;99.90;;;;;;4962569;28;20031;-62
2023/05/19 02:25:13;;;;;;;6.90;2.65;;;7.50;99.90;;;;;;4943226;28;20166;-63
2023/05/19 02:27:41;;;;;;;8.98;2.35;;;7.40;99.90;;;;;;4961688;28;20027;-63
2023/05/19 02:30:08;;;;;;;6.28;2.30;;;7.40;99.90;;;;;;4961467;28;20115;-63
2023/05/19 02:32:33;;;;;;;5.30;2.30;;;7.30;99.90;;;;;;4963706;28;20037;-64
2023/05/19 02:34:59;;;;;;;5.10;2.00;;;7.30;99.90;;;;;;4962949;28;20030;-63
2023/05/19 02:37:27;;;;;;;5.28;2.03;;;7.30;99.90;;;;;;4966020;28;20093;-63
2023/05/19 02:39:53;;;;;;;10.82;1.90;;;7.30;99.90;;;;;;4963061;28;20436;-64
2023/05/19 02:42:19;;;;;;;6.50;2.00;;;7.30;99.90;;;;;;4962853;28;21292;-64
2023/05/19 02:44:45;;;;;;;9.13;1.98;;;7.30;99.90;;;;;;4963149;28;20031;-63
2023/05/19 02:47:10;;;;;;;6.40;1.88;;;7.30;99.90;;;;;;4964619;28;20178;-63
2023/05/19 02:49:36;;;;;;;7.78;1.58;;;7.30;99.90;;;;;;4965658;28;20027;-64
2023/05/19 02:52:03;;;;;;;4.72;1.60;;;7.40;99.90;;;;;;4969855;28;20119;-64
2023/05/19 02:54:30;;;;;;;7.55;2.30;;;7.40;99.90;;;;;;4967760;28;20027;-63
2023/05/19 02:56:55;;;;;;;7.38;2.25;;;7.50;99.90;;;;;;4968793;28;20023;-64
2023/05/19 02:59:22;;;;;;;9.98;2.60;;;7.50;99.90;;;;;;4952798;28;20045;-63
2023/05/19 03:01:47;;;;;;;5.03;1.50;;;7.50;99.90;;;;;;4969847;28;20045;-66
2023/05/19 03:04:13;;;;;;;5.75;2.13;;;7.50;99.90;;;;;;4966398;28;20027;-64
2023/05/19 03:06:39;;;;;;;2.95;1.63;;;7.50;99.90;;;;;;4952064;28;20027;-64
2023/05/19 03:09:04;;;;;;;7.03;1.73;;;7.50;99.90;;;;;;4969640;28;20043;-63
2023/05/19 03:11:30;;;;;;;8.95;1.90;;;7.50;99.90;;;;;;4968823;28;20440;-64
2023/05/19 03:13:56;;;;;;;5.03;2.10;;;7.50;99.90;;;;;;4968943;28;20045;-64
2023/05/19 03:16:21;;;;;;;6.80;1.58;;;7.60;99.90;;;;;;4968224;28;20059;-63
2023/05/19 03:18:47;;;;;;;9.10;1.92;;;7.60;99.90;;;;;;4970637;28;20408;-64
2023/05/19 03:21:13;;;;;;;7.20;1.83;;;7.60;99.90;;;;;;4974738;28;20025;-64
2023/05/19 03:23:38;;;;;;;5.53;1.75;;;7.60;99.90;;;;;;4976342;28;20096;-63
2023/05/19 03:26:05;;;;;;;6.47;1.80;;;7.60;99.90;;;;;;4972735;28;20042;-64
2023/05/19 03:28:30;;;;;;;6.13;1.77;;;7.50;99.90;;;;;;4959792;28;20054;-62
2023/05/19 03:30:56;;;;;;;8.38;1.80;;;7.50;99.90;;;;;;4976410;28;20067;-64
2023/05/19 03:33:22;;;;;;;7.10;2.10;;;7.50;99.90;;;;;;4974112;28;20487;-65
2023/05/19 03:35:48;;;;;;;7.70;1.70;;;7.50;99.90;;;;;;4968620;28;20123;-64
2023/05/19 03:38:13;;;;;;;7.40;1.95;;;7.40;99.90;;;;;;4973695;28;20030;-64
2023/05/19 03:40:40;;;;;;;7.28;1.40;;;7.40;99.90;;;;;;4975375;28;20034;-64
2023/05/19 03:43:06;;;;;;;7.25;1.48;;;7.40;99.90;;;;;;4977649;28;20073;-63
2023/05/19 03:45:32;;;;;;;3.85;1.60;;;7.50;99.90;;;;;;4978941;28;20035;-64
2023/05/19 03:47:58;;;;;;;4.32;1.40;;;7.60;99.90;;;;;;4973307;28;20058;-63
2023/05/19 03:50:23;;;;;;;3.50;1.33;;;7.70;99.90;;;;;;4972636;28;20467;-65
2023/05/19 03:52:49;;;;;;;6.88;1.48;;;7.70;99.90;;;;;;4977664;28;20030;-64
2023/05/19 03:55:15;;;;;;;6.63;1.75;;;7.70;99.90;;;;;;4970648;28;20022;-64
2023/05/19 03:57:42;;;;;;;9.82;2.35;;;7.60;99.90;;;;;;4972155;28;20103;-63
2023/05/19 04:00:10;;;;;;;7.13;2.08;;;7.60;99.90;;;;;;4954892;28;20540;-63
2023/05/19 04:02:35;;;;;;;8.07;2.30;;;7.50;99.90;;;;;;4970210;28;20604;-64
2023/05/19 04:05:03;;;;;;;4.82;2.13;;;7.30;99.90;;;;;;4966891;28;20042;-65
2023/05/19 04:07:32;;;;;;;6.03;1.70;;;7.20;99.90;;;;;;4970230;28;20019;-63
2023/05/19 04:09:58;;;;;;;6.45;2.10;;;7.10;99.90;;;;;;4969831;28;20042;-64
2023/05/19 04:12:24;;;;;;;5.30;2.53;;;7.10;99.90;;;;;;4973056;28;20084;-64
2023/05/19 04:14:49;;;;;;;9.82;2.13;;;7.00;99.90;;;;;;4970363;28;20121;-64
2023/05/19 04:17:15;;;;;;;6.10;2.55;;;7.00;99.90;;;;;;4970512;28;20023;-63
2023/05/19 04:19:40;;;;;;;3.75;2.10;;;7.00;99.90;;;;;;4968587;28;20457;-63
2023/05/19 04:22:06;;;;;;;5.90;3.03;;;7.10;99.90;;;;;;4974093;28;20042;-63
2023/05/19 04:24:32;;;;;;;7.57;1.98;;;7.10;99.90;;;;;;4967354;28;20170;-63
2023/05/19 04:27:01;;;;;;;6.13;2.13;;;7.20;99.90;;;;;;4972078;28;20030;-64
2023/05/19 04:29:28;;;;;;;8.80;2.10;;;7.30;99.90;;;;;;4971281;28;20026;-63
2023/05/19 04:31:54;;;;;;;8.90;1.60;;;7.40;99.90;;;;;;4970522;28;20396;-63
2023/05/19 04:34:20;;;;;;;8.25;2.47;;;7.50;99.90;;;;;;4969288;28;20027;-63
2023/05/19 04:36:46;;;;;;;4.68;1.50;;;7.90;99.90;;;;;;4968894;28;20042;-62
2023/05/19 04:39:13;;;;;;;5.13;1.63;;;8.60;99.90;;;;;;4966470;28;20030;-63
2023/05/19 04:41:39;;;;;;;5.03;1.63;;;9.40;99.90;;;;;;4967473;28;20023;-64
2023/05/19 04:44:08;;;;;;;2.88;1.27;;;10.20;99.90;;;;;;4967580;28;20041;-63
2023/05/19 04:46:34;;;;;;;3.30;1.10;;;11.30;99.90;;;;;;4966138;28;20038;-63
2023/05/19 04:49:00;;;;;;;5.18;1.60;;;12.10;99.90;;;;;;4964977;28;20022;-64
2023/05/19 04:51:26;;;;;;;6.88;1.63;;;13.20;99.90;;;;;;4965480;28;20038;-64
2023/05/19 04:53:54;;;;;;;3.55;1.60;;;14.10;99.90;;;;;;4971205;28;20126;-64
2023/05/19 04:56:20;;;;;;;3.15;1.45;;;15.30;98.10;;;;;;4970827;28;20035;-64
2023/05/19 04:58:46;;;;;;;4.93;2.08;;;15.80;95.90;;;;;;4970562;28;20015;-63
2023/05/19 05:01:15;;;;;;;4.82;1.40;;;17.00;93.30;;;;;;4953495;28;20050;-64
2023/05/19 05:03:41;;;;;;;2.53;1.40;;;17.60;91.90;;;;;;4962620;28;20034;-63
2023/05/19 05:06:07;;;;;;;3.05;1.42;;;17.10;92.70;;;;;;4968942;28;20537;-64
2023/05/19 05:08:33;;;;;;;4.03;1.55;;;16.80;93.40;;;;;;4970016;28;20398;-65
2023/05/19 05:10:59;;;;;;;6.57;1.92;;;17.00;92.40;;;;;;4969976;28;20027;-65
2023/05/19 05:13:25;;;;;;;4.28;1.70;;;18.00;91.60;;;;;;4971650;28;20037;-64
2023/05/19 05:15:51;;;;;;;4.05;1.30;;;17.80;91.30;;;;;;4969021;28;20030;-65
2023/05/19 05:18:17;;;;;;;5.13;1.70;;;18.10;90.60;;;;;;4968963;28;20113;-65
2023/05/19 05:20:44;;;;;;;3.30;1.35;;;18.40;91.20;;;;;;4968565;28;20207;-64
2023/05/19 05:23:13;;;;;;;4.25;1.40;;;18.60;90.70;;;;;;4970873;28;20047;-64
2023/05/19 05:25:40;;;;;;;4.40;1.50;;;18.80;90.00;;;;;;4970597;28;20041;-63
2023/05/19 05:28:06;;;;;;;3.40;1.30;;;19.10;89.50;;;;;;4972999;28;20659;-65
2023/05/19 05:33:02;;;;;;;4.82;1.55;;;19.50;86.80;;;;;;4983487;28;20053;-68
2023/05/19 05:35:28;;;;;;;4.93;1.55;;;19.70;86.60;;;;;;4988161;28;20026;-67
2023/05/19 05:37:54;;;;;;;6.63;1.23;;;20.10;85.80;;;;;;4989975;28;20436;-67
2023/05/19 05:40:20;;;;;;;3.53;1.38;;;20.50;84.70;;;;;;4988481;28;20053;-67
2023/05/19 05:42:46;;;;;;;4.88;1.05;;;22.00;79.40;;;;;;4973899;28;20101;-66
2023/05/19 05:45:11;;;;;;;8.27;1.67;;;22.30;79.40;;;;;;4969887;28;20138;-66
2023/05/19 05:47:38;;;;;;;4.80;1.88;;;22.10;77.70;;;;;;4973636;28;20030;-67
2023/05/19 05:50:08;;;;;;;3.80;1.30;;;22.10;78.40;;;;;;4969760;28;20035;-67
2023/05/19 05:52:36;;;;;;;4.22;1.48;;;22.70;77.20;;;;;;4969049;28;20035;-66
2023/05/19 05:55:02;;;;;;;5.93;1.65;;;22.20;76.40;;;;;;4967443;28;20035;-67
2023/05/19 05:57:29;;;;;;;4.72;1.30;;;23.00;75.20;;;;;;4954700;28;20033;-67
2023/05/19 05:59:55;;;;;;;6.38;1.55;;;23.70;73.70;;;;;;4952084;28;20036;-65
2023/05/19 06:02:21;;;;;;;3.05;1.20;;;23.30;72.30;;;;;;4963222;28;20023;-67
2023/05/19 06:04:46;;;;;;;4.85;1.63;;;23.40;73.30;;;;;;4971321;28;20037;-66
2023/05/19 06:07:12;;;;;;;3.83;1.63;;;24.20;71.80;;;;;;4968240;28;20015;-67
2023/05/19 06:09:37;;;;;;;11.07;1.58;;;24.10;72.00;;;;;;4967215;28;20023;-68
2023/05/19 06:12:03;;;;;;;5.22;1.48;;;23.90;72.30;;;;;;4968246;28;20026;-67
2023/05/19 06:14:29;;;;;;;3.65;1.40;;;24.40;70.60;;;;;;4968553;28;20034;-68
2023/05/19 06:16:54;;;;;;;5.47;1.42;;;24.90;70.20;;;;;;4970452;28;20038;-68
2023/05/19 06:19:20;;;;;;;3.78;1.48;;;24.50;69.80;;;;;;4966109;28;20070;-69
2023/05/19 06:21:46;;;;;;;2.90;1.33;;;24.40;69.80;;;;;;4969238;28;20634;-66
2023/05/19 06:24:12;;;;;;;7.70;1.80;;;24.40;67.60;;;;;;4974089;28;20030;-66
2023/05/19 06:26:37;;;;;;;3.88;1.17;;;23.80;69.10;;;;;;4969470;28;20026;-68
2023/05/19 06:29:03;;;;;;;9.57;1.65;;;25.60;67.50;;;;;;4970098;28;20050;-66
2023/05/19 06:31:28;;;;;;;4.00;1.45;;;24.40;68.60;;;;;;4967924;28;20093;-67
2023/05/19 06:33:54;;;;;;;3.20;1.15;;;25.00;67.00;;;;;;4967897;28;20548;-67
2023/05/19 06:36:19;;;;;;;3.72;1.30;;;25.00;67.30;;;;;;4960858;28;20035;-67
2023/05/19 06:38:45;;;;;;;4.07;1.20;;;25.60;66.50;;;;;;4954885;28;20035;-66
2023/05/19 06:41:11;;;;;;;3.67;1.17;;;24.60;64.90;;;;;;4955349;28;20019;-65
2023/05/19 06:43:37;;;;;;;6.60;1.70;;;24.70;67.40;;;;;;4957062;28;20037;-65
2023/05/19 06:46:03;;;;;;;5.10;1.65;;;24.90;63.70;;;;;;4954808;28;20027;-67
2023/05/19 06:48:28;;;;;;;7.28;1.40;;;24.70;66.00;;;;;;4955365;28;20027;-66
2023/05/19 06:50:55;;;;;;;4.65;1.40;;;24.70;64.20;;;;;;4954921;28;20122;-67
2023/05/19 06:53:20;;;;;;;4.78;1.33;;;24.50;64.90;;;;;;4965856;28;20039;-66
2023/05/19 06:55:49;;;;;;;4.00;1.50;;;25.00;65.40;;;;;;4962755;28;20030;-66
2023/05/19 06:58:15;;;;;;;8.23;1.27;;;25.10;64.20;;;;;;4966502;28;20018;-67
2023/05/19 07:00:40;;;;;;;3.35;1.27;;;25.70;64.10;;;;;;4945572;28;20051;-66
2023/05/19 07:03:06;;;;;;;3.08;1.25;;;25.90;63.20;;;;;;4957129;28;21202;-65
2023/05/19 07:05:31;;;;;;;4.25;1.50;;;26.20;62.70;;;;;;4955555;28;21263;-67
2023/05/19 07:07:57;;;;;;;6.65;1.77;;;26.40;62.30;;;;;;4954275;28;20053;-67
2023/05/19 07:10:23;;;;;;;5.40;1.40;;;26.20;60.70;;;;;;4953774;28;20023;-66
2023/05/19 07:12:48;;;;;;;2.13;0.95;;;26.10;61.80;;;;;;4964023;28;20477;-65
2023/05/19 07:15:14;;;;;;;5.32;1.67;;;26.20;60.10;;;;;;4967164;28;20041;-66
2023/05/19 07:17:40;;;;;;;4.35;1.63;;;26.10;61.60;;;;;;4968724;28;20019;-66
2023/05/19 07:20:08;;;;;;;4.05;1.08;;;26.60;61.90;;;;;;4965909;28;20374;-66
2023/05/19 07:22:34;;;;;;;5.05;1.20;;;27.30;60.10;;;;;;4968153;28;20043;-66
2023/05/19 07:25:00;;;;;;;3.75;1.33;;;26.80;59.10;;;;;;4969583;28;20065;-67
2023/05/19 07:27:25;;;;;;;3.00;1.30;;;27.30;59.40;;;;;;4967672;28;20118;-67
2023/05/19 07:29:51;;;;;;;6.05;1.35;;;26.60;59.20;;;;;;4966284;28;20058;-66
2023/05/19 07:32:17;;;;;;;5.28;1.45;;;27.00;59.20;;;;;;4967987;28;20069;-67
2023/05/19 07:34:42;;;;;;;8.15;1.52;;;27.30;57.70;;;;;;4967437;28;20027;-66
2023/05/19 07:37:08;;;;;;;3.22;1.40;;;27.90;57.40;;;;;;4967851;28;20473;-67
2023/05/19 07:39:34;;;;;;;4.45;1.27;;;27.80;58.20;;;;;;4974431;28;20030;-66
2023/05/19 07:42:00;;;;;;;4.07;2.25;;;28.30;58.50;;;;;;4973994;28;20084;-67
2023/05/19 07:44:26;;;;;;;3.25;1.10;;;28.00;57.40;;;;;;4948989;28;20027;-65
2023/05/19 07:46:52;;;;;;;5.70;1.40;;;28.20;55.90;;;;;;4971236;28;20015;-66
2023/05/19 07:49:18;;;;;;;4.15;1.25;;;28.00;57.60;;;;;;4969356;28;20469;-67
2023/05/19 07:51:44;;;;;;;6.72;1.48;;;28.30;57.80;;;;;;4970063;28;20093;-66
2023/05/19 07:54:09;;;;;;;3.47;1.20;;;28.50;56.20;;;;;;4970252;28;20026;-67
2023/05/19 07:56:35;;;;;;;5.05;1.65;;;29.10;56.20;;;;;;4969997;28;20054;-67
2023/05/19 07:59:01;;;;;;;3.50;1.42;;;28.70;56.60;;;;;;4969841;28;20035;-67
2023/05/19 08:01:27;;;;;;;6.28;1.75;;;29.20;55.90;;;;;;4950624;28;20157;-66
2023/05/19 08:03:52;;;;;;;3.92;1.42;;;28.70;55.90;;;;;;4966191;28;20547;-66
2023/05/19 08:06:18;;;;;;;3.50;1.20;;;29.40;55.60;;;;;;4973232;28;20031;-68
2023/05/19 08:08:43;;;;;;;4.60;1.30;;;28.70;56.10;;;;;;4974515;28;20054;-68
2023/05/19 08:11:09;;;;;;;5.30;1.70;;;29.10;54.80;;;;;;4964745;28;21726;-67
2023/05/19 08:13:34;;;;;;;4.07;1.30;;;29.40;55.40;;;;;;4972015;28;20055;-67
2023/05/19 08:16:00;;;;;;;6.60;1.30;;;29.30;56.30;;;;;;4972284;28;20067;-66
2023/05/19 08:18:26;;;;;;;3.92;1.00;;;28.80;55.30;;;;;;4973487;28;20019;-66
2023/05/19 08:20:51;;;;;;;5.38;1.63;;;28.20;55.40;;;;;;4972537;28;20038;-66
2023/05/19 08:23:17;;;;;;;3.30;1.15;;;28.70;54.10;;;;;;4970814;28;20035;-66
2023/05/19 08:25:43;;;;;;;9.45;1.50;;;28.80;55.40;;;;;;4971858;28;20101;-68
2023/05/19 08:28:09;;;;;;;5.07;1.30;;;29.80;55.30;;;;;;4973602;28;20499;-68
2023/05/19 08:30:35;;;;;;;3.83;1.23;;;29.50;53.70;;;;;;4968647;28;20023;-66
2023/05/19 08:33:01;;;;;;;7.07;1.75;;;28.70;56.70;;;;;;4978675;28;20141;-64
2023/05/19 08:35:26;;;;;;;4.38;1.20;;;29.90;53.10;;;;;;4970388;28;20046;-66
2023/05/19 08:37:52;;;;;;;5.43;1.60;;;28.80;52.80;;;;;;4970121;28;20022;-67
2023/05/19 08:40:19;;;;;;;2.20;1.10;;;29.30;52.90;;;;;;4970580;28;20022;-67
2023/05/19 08:42:45;;;;;;;3.88;1.45;;;29.30;52.60;;;;;;4972122;28;20058;-67
2023/05/19 08:45:11;;;;;;;15.68;1.67;;;29.80;52.20;;;;;;4969967;28;20026;-67
2023/05/19 08:47:38;;;;;;;4.93;1.58;;;29.60;51.00;;;;;;4972626;28;20030;-67
2023/05/19 08:50:09;;;;;;;3.80;1.42;;;29.30;50.10;;;;;;4968109;28;20027;-67
2023/05/19 08:53:03;;;;;;;5.82;1.27;;;29.70;50.30;;;;;;4966719;28;20054;-66
2023/05/19 08:56:09;;;;;;;4.28;1.40;;;28.70;49.80;;;;;;4971074;28;20042;-66
2023/05/19 08:58:42;;;;;;;4.30;1.45;;;27.80;51.80;;;;;;4938174;28;20035;-67
2023/05/19 09:01:09;;;;;;;6.05;1.70;;;27.80;52.30;;;;;;4954205;28;20086;-66
2023/05/19 09:03:37;;;;;;;3.97;1.30;;;27.40;50.80;;;;;;4966104;28;20031;-66
2023/05/19 09:06:15;;;;;;;8.18;1.50;;;27.50;53.90;;;;;;4949648;28;20563;-66
2023/05/19 09:08:42;;;;;;;2.65;1.20;;;27.60;50.80;;;;;;4973367;28;20051;-66
2023/05/19 09:11:09;;;;;;;2.38;1.05;;;26.80;53.90;;;;;;4971686;28;20050;-66
2023/05/19 09:13:34;;;;;;;4.35;1.30;;;26.80;51.60;;;;;;4958288;28;20031;-66
2023/05/19 09:16:01;;;;;;;4.60;1.40;;;25.50;53.30;;;;;;4958103;28;20034;-66
2023/05/19 09:18:28;;;;;;;7.20;1.80;;;25.40;54.50;;;;;;4972419;28;20078;-66
2023/05/19 09:20:59;;;;;;;4.22;1.70;;;25.70;54.70;;;;;;4968769;28;20030;-66
2023/05/19 09:23:27;;;;;;;2.78;1.20;;;25.40;54.70;;;;;;4967974;28;20038;-66
2023/05/19 09:25:54;;;;;;;6.80;1.58;;;25.60;53.50;;;;;;4968022;28;20111;-66
2023/05/19 09:28:31;;;;;;;6.35;1.40;;;24.90;55.60;;;;;;4971724;28;20519;-66
2023/05/19 09:31:01;;;;;;;5.90;1.25;;;24.50;54.80;;;;;;4961021;28;20410;-65
2023/05/19 09:33:27;;;;;;;3.75;1.35;;;24.60;54.70;;;;;;4969666;28;20288;-66
2023/05/19 09:35:56;;;;;;;9.40;1.70;;;24.40;56.00;;;;;;4969328;28;20042;-64
2023/05/19 09:38:28;;;;;;;8.02;1.98;;;24.40;55.30;;;;;;4969935;28;20023;-66
2023/05/19 09:40:59;;;;;;;8.95;1.30;;;23.70;54.70;;;;;;4971905;28;20153;-66
2023/05/19 09:43:34;;;;;;;4.75;1.40;;;24.10;57.80;;;;;;4971434;28;20050;-66
2023/05/19 09:46:03;;;;;;;7.30;1.40;;;24.70;55.60;;;;;;4972236;28;20031;-67
2023/05/19 09:48:29;;;;;;;4.22;1.85;;;24.20;54.60;;;;;;4971504;28;20076;-65
2023/05/19 09:50:56;;;;;;;3.85;1.38;;;23.80;56.20;;;;;;4970578;28;20047;-68
2023/05/19 09:53:22;;;;;;;8.00;1.40;;;23.00;57.60;;;;;;4969057;28;20038;-68
2023/05/19 09:55:50;;;;;;;7.25;1.80;;;22.40;57.90;;;;;;4967330;28;20541;-65
2023/05/19 09:58:19;;;;;;;3.80;1.35;;;22.90;57.10;;;;;;4953382;28;20515;-67
2023/05/19 10:00:46;;;;;;;3.80;1.88;;;23.50;55.70;;;;;;4952480;28;20019;-65
2023/05/19 10:03:12;;;;;;;4.32;1.30;;;23.60;55.70;;;;;;4968294;28;20031;-65
2023/05/19 10:05:40;;;;;;;4.82;1.65;;;23.50;56.30;;;;;;4967981;28;20122;-67
2023/05/19 10:08:09;;;;;;;6.53;1.60;;;23.10;56.50;;;;;;4964520;28;20081;-67
2023/05/19 10:10:38;;;;;;;4.90;1.73;;;23.30;57.90;;;;;;4965430;28;20019;-66
2023/05/19 10:13:04;;;;;;;3.75;1.45;;;23.40;56.10;;;;;;4967867;28;20492;-66
2023/05/19 10:15:30;;;;;;;5.10;1.63;;;23.70;57.40;;;;;;4965241;28;20023;-67
2023/05/19 10:17:56;;;;;;;5.50;1.55;;;23.40;58.20;;;;;;4934462;28;20037;-67
2023/05/19 10:20:22;;;;;;;3.13;1.58;;;23.60;56.60;;;;;;4965976;28;20023;-68
2023/05/19 10:22:47;;;;;;;5.32;1.30;;;24.00;56.70;;;;;;4970812;28;20027;-67
2023/05/19 10:25:18;;;;;;;4.88;2.15;;;23.60;57.30;;;;;;4968244;28;20077;-67
2023/05/19 10:27:52;;;;;;;5.43;1.48;;;23.30;57.30;;;;;;4968545;28;20061;-66
2023/05/19 10:30:27;;;;;;;5.78;1.95;;;23.00;57.50;;;;;;4969280;28;20053;-67
2023/05/19 10:32:55;;;;;;;4.80;1.65;;;22.60;56.50;;;;;;4972079;28;20513;-67
2023/05/19 10:36:10;;;;;;;5.53;1.70;;;22.40;58.50;;;;;;4966719;28;20038;-66
2023/05/19 10:38:55;;;;;;;5.82;1.65;;;21.80;57.50;;;;;;4968588;28;20085;-66
2023/05/19 10:41:39;;;;;;;4.38;1.85;;;21.80;56.90;;;;;;4963212;28;20121;-67
2023/05/19 10:44:12;;;;;;;4.85;1.80;;;22.10;58.30;;;;;;4966182;28;20106;-66
2023/05/19 10:46:40;;;;;;;6.90;1.50;;;22.60;56.30;;;;;;4962492;28;20039;-66
2023/05/19 10:49:07;;;;;;;4.40;1.50;;;22.70;56.80;;;;;;4966962;28;20081;-66
2023/05/19 10:51:33;;;;;;;3.40;1.35;;;22.50;57.80;;;;;;4969433;28;20140;-66
2023/05/19 10:54:08;;;;;;;7.05;1.52;;;22.50;55.90;;;;;;4968967;28;20062;-67
2023/05/19 10:56:40;;;;;;;5.18;1.67;;;22.40;56.80;;;;;;4968450;28;20030;-66
2023/05/19 10:59:06;;;;;;;6.20;1.75;;;22.40;57.20;;;;;;4945881;28;20062;-66
2023/05/19 11:01:33;;;;;;;5.95;1.92;;;22.40;56.80;;;;;;4950342;28;20081;-66
2023/05/19 11:04:14;;;;;;;5.50;1.38;;;22.70;58.10;;;;;;4968820;28;20027;-66
2023/05/19 11:06:40;;;;;;;6.07;1.70;;;23.00;56.50;;;;;;4967735;28;20015;-67
2023/05/19 11:09:16;;;;;;;4.35;1.38;;;23.00;56.20;;;;;;4966441;28;20069;-65
2023/05/19 11:11:52;;;;;;;5.30;2.28;;;22.90;58.80;;;;;;4970434;28;20023;-66
2023/05/19 11:14:21;;;;;;;6.13;1.63;;;23.10;58.40;;;;;;4962278;28;20073;-69
2023/05/19 11:16:48;;;;;;;4.22;1.52;;;23.00;57.60;;;;;;4965272;28;20096;-67
2023/05/19 11:19:34;;;;;;;3.67;1.30;;;22.80;56.40;;;;;;4966445;28;20059;-67
2023/05/19 11:22:08;;;;;;;4.38;1.58;;;22.20;58.10;;;;;;4966696;28;20444;-67
2023/05/19 11:24:48;;;;;;;4.60;1.20;;;22.10;59.60;;;;;;4970232;28;20362;-67
2023/05/19 11:27:32;;;;;;;8.13;1.90;;;21.90;62.30;;;;;;4970228;28;20049;-68
2023/05/19 11:30:00;;;;;;;7.13;1.95;;;21.80;59.70;;;;;;4967758;28;20031;-67
2023/05/19 11:32:32;;;;;;;6.25;1.70;;;21.70;57.60;;;;;;4968521;28;20155;-66
2023/05/19 11:34:59;;;;;;;7.18;1.88;;;21.50;59.90;;;;;;4962709;28;20408;-67
2023/05/19 11:37:27;;;;;;;3.30;1.42;;;21.90;58.20;;;;;;4970099;28;20031;-68
2023/05/19 11:39:53;;;;;;;8.18;1.98;;;22.00;59.60;;;;;;4970380;28;20123;-67
2023/05/19 11:42:19;;;;;;;5.55;1.50;;;21.70;58.60;;;;;;4972788;28;20489;-68
2023/05/19 11:44:45;;;;;;;5.10;1.30;;;21.50;58.50;;;;;;4956392;28;20556;-68
2023/05/19 11:47:12;;;;;;;3.00;1.50;;;21.70;60.10;;;;;;4972172;28;20733;-68
2023/05/19 11:49:38;;;;;;;5.22;1.65;;;21.80;58.20;;;;;;4969170;28;20037;-67
2023/05/19 11:52:04;;;;;;;3.35;1.17;;;21.80;59.50;;;;;;4973533;28;20046;-67
2023/05/19 11:54:35;;;;;;;6.20;2.05;;;21.90;59.10;;;;;;4968673;28;20070;-67
2023/05/19 11:57:04;;;;;;;7.93;1.63;;;22.00;59.40;;;;;;4972839;28;20034;-67
2023/05/19 11:59:34;;;;;;;7.38;1.60;;;21.80;57.70;;;;;;4952362;28;20396;-67
2023/05/19 12:02:02;;;;;;;2.97;1.38;;;21.80;58.00;;;;;;4959689;28;20125;-68
2023/05/19 12:04:29;;;;;;;5.75;1.80;;;21.90;59.60;;;;;;4970734;28;20031;-68
2023/05/19 12:06:54;;;;;;;4.13;1.30;;;21.90;57.50;;;;;;4972415;28;20088;-67
2023/05/19 12:09:22;;;;;;;4.28;1.70;;;21.90;58.30;;;;;;4972012;28;20031;-68
2023/05/19 12:11:49;;;;;;;7.63;1.95;;;21.90;56.00;;;;;;4972456;28;20500;-67
2023/05/19 12:14:16;;;;;;;2.78;1.63;;;21.50;59.70;;;;;;4979767;28;20085;-68
2023/05/19 12:16:42;;;;;;;14.43;1.65;;;21.50;58.50;;;;;;4974975;28;20446;-68
2023/05/19 12:19:08;;;;;;;4.43;1.60;;;21.60;57.70;;;;;;4972014;28;20400;-67
2023/05/19 12:21:34;;;;;;;3.65;1.50;;;21.60;57.20;;;;;;4972934;28;20061;-68
2023/05/19 12:24:00;;;;;;;4.47;1.58;;;21.60;56.80;;;;;;4973289;28;20031;-68
2023/05/19 12:26:26;;;;;;;5.22;1.50;;;21.40;57.70;;;;;;4952013;28;20041;-67
2023/05/19 12:28:52;;;;;;;6.38;1.67;;;21.10;57.90;;;;;;4969336;28;20034;-66
2023/05/19 12:31:18;;;;;;;6.13;1.77;;;20.70;58.50;;;;;;4962334;28;20035;-67
2023/05/19 12:33:50;;;;;;;4.40;2.03;;;20.70;61.40;;;;;;4968933;28;20037;-66
2023/05/19 12:36:16;;;;;;;8.38;1.88;;;20.70;60.10;;;;;;4963102;28;20034;-68
2023/05/19 12:38:43;;;;;;;3.40;1.45;;;20.50;57.80;;;;;;4969884;28;20045;-68
2023/05/19 12:41:14;;;;;;;3.92;1.15;;;20.70;57.40;;;;;;4973136;28;20039;-67
2023/05/19 12:43:39;;;;;;;5.30;1.50;;;20.80;59.70;;;;;;4976067;28;20508;-68
2023/05/19 12:46:10;;;;;;;6.57;1.58;;;20.80;59.60;;;;;;4971347;28;20026;-68
2023/05/19 12:48:40;;;;;;;5.22;1.52;;;21.00;58.70;;;;;;4971785;28;20030;-67
2023/05/19 12:51:06;;;;;;;3.72;1.40;;;21.20;58.00;;;;;;4974984;28;20034;-67
2023/05/19 12:53:32;;;;;;;5.82;1.65;;;21.30;57.50;;;;;;4972501;28;20030;-69
2023/05/19 12:55:57;;;;;;;8.57;1.77;;;21.10;57.70;;;;;;4971438;28;20034;-68
2023/05/19 12:58:23;;;;;;;4.72;1.20;;;21.10;57.00;;;;;;4994305;23;20042;-63